createdAt,value
2022-07-31T00:00:24.654Z,101236.19
2022-07-31T00:02:52.575Z,101243.34
2022-07-31T00:05:20.388Z,101242.41
2022-07-31T00:07:48.127Z,101243.19
2022-07-31T00:10:15.868Z,101239.41
2022-07-31T00:12:43.720Z,101240.31
2022-07-31T00:15:12.548Z,101234.94
2022-07-31T00:17:42.418Z,101240.78
2022-07-31T00:20:13.225Z,101239.97
2022-07-31T00:22:41.143Z,101237.22
2022-07-31T00:25:10.484Z,101234.16
2022-07-31T00:27:38.367Z,101236.47
2022-07-31T00:30:07.194Z,101234.47
2022-07-31T00:32:35.272Z,101232.50
2022-07-31T00:35:05.085Z,101235.41
2022-07-31T00:37:32.785Z,101232.66
2022-07-31T00:40:00.496Z,101230.00
2022-07-31T00:42:30.097Z,101230.69
2022-07-31T00:44:57.821Z,101224.72
2022-07-31T00:47:27.191Z,101227.16
2022-07-31T00:49:54.997Z,101221.06
2022-07-31T00:52:24.052Z,101221.59
2022-07-31T00:54:51.949Z,101227.25
2022-07-31T00:57:19.695Z,101223.97
2022-07-31T00:59:47.463Z,101221.16
2022-07-31T01:02:15.448Z,101220.88
2022-07-31T01:04:44.567Z,101229.66
2022-07-31T01:07:13.683Z,101224.53
2022-07-31T01:09:44.832Z,101226.56
2022-07-31T01:12:16.385Z,101224.47
2022-07-31T01:14:47.433Z,101221.38
2022-07-31T01:17:16.715Z,101223.84
2022-07-31T01:19:46.081Z,101218.06
2022-07-31T01:22:33.748Z,101214.31
2022-07-31T01:25:09.572Z,101216.56
2022-07-31T01:27:50.102Z,101213.69
2022-07-31T01:30:19.904Z,101213.56
2022-07-31T01:32:49.680Z,101217.31
2022-07-31T01:35:20.993Z,101218.75
2022-07-31T01:37:53.781Z,101213.13
2022-07-31T01:40:27.364Z,101222.28
2022-07-31T01:42:57.822Z,101227.25
2022-07-31T01:45:27.392Z,101215.88
2022-07-31T01:47:56.673Z,101219.50
2022-07-31T01:50:43.091Z,101212.25
2022-07-31T01:53:14.073Z,101219.72
2022-07-31T01:55:56.453Z,101222.91
2022-07-31T01:58:33.792Z,101214.94
2022-07-31T02:01:04.273Z,101220.09
2022-07-31T02:03:43.566Z,101217.53
2022-07-31T02:06:14.622Z,101215.91
2022-07-31T02:08:44.200Z,101206.09
2022-07-31T02:11:13.945Z,101204.31
2022-07-31T02:13:41.858Z,101216.34
2022-07-31T02:16:11.067Z,101215.09
2022-07-31T02:18:39.157Z,101214.31
2022-07-31T02:21:07.132Z,101216.06
2022-07-31T02:23:35.075Z,101221.22
2022-07-31T02:26:04.606Z,101222.03
2022-07-31T02:28:33.379Z,101226.63
2022-07-31T02:31:02.603Z,101226.97
2022-07-31T02:33:32.349Z,101225.28
2022-07-31T02:36:01.061Z,101223.81
2022-07-31T02:38:29.198Z,101215.13
2022-07-31T02:40:59.192Z,101229.13
2022-07-31T02:43:27.583Z,101221.13
2022-07-31T02:45:55.958Z,101214.59
2022-07-31T02:48:24.706Z,101216.66
2022-07-31T02:50:56.872Z,101203.31
2022-07-31T02:53:25.042Z,101210.53
2022-07-31T02:55:52.848Z,101204.31
2022-07-31T02:58:20.777Z,101205.47
2022-07-31T03:00:48.769Z,101194.50
2022-07-31T03:03:16.553Z,101204.25
2022-07-31T03:05:44.305Z,101206.19
2022-07-31T03:08:13.397Z,101202.97
2022-07-31T03:10:41.110Z,101199.69
2022-07-31T03:13:09.764Z,101197.59
2022-07-31T03:15:39.034Z,101197.72
2022-07-31T03:18:11.248Z,101201.66
2022-07-31T03:20:40.409Z,101195.22
2022-07-31T03:23:09.052Z,101202.56
2022-07-31T03:25:38.556Z,101201.19
2022-07-31T03:28:06.279Z,101199.94
2022-07-31T03:30:34.008Z,101201.53
2022-07-31T03:33:03.409Z,101200.34
2022-07-31T03:35:31.620Z,101188.19
2022-07-31T03:37:59.333Z,101189.63
2022-07-31T03:40:27.223Z,101194.38
2022-07-31T03:42:57.044Z,101193.78
2022-07-31T03:45:25.556Z,101197.66
2022-07-31T03:47:53.325Z,101182.13
2022-07-31T03:50:22.412Z,101182.13
2022-07-31T03:52:50.899Z,101181.19
2022-07-31T03:55:18.613Z,101176.75
2022-07-31T03:57:47.623Z,101178.28
2022-07-31T04:00:19.126Z,101174.13
2022-07-31T04:02:47.167Z,101180.69
2022-07-31T04:05:15.101Z,101180.47
2022-07-31T04:07:42.787Z,101177.06
2022-07-31T04:10:11.290Z,101186.78
2022-07-31T04:12:39.334Z,101181.22
2022-07-31T04:15:07.918Z,101190.22
2022-07-31T04:17:38.474Z,101180.13
2022-07-31T04:20:07.522Z,101185.69
2022-07-31T04:22:35.260Z,101180.28
2022-07-31T04:25:07.246Z,101181.63
2022-07-31T04:27:36.171Z,101178.50
2022-07-31T04:30:16.364Z,101186.31
2022-07-31T04:32:45.693Z,101190.28
2022-07-31T04:35:13.610Z,101182.56
2022-07-31T04:37:48.011Z,101180.97
2022-07-31T04:40:17.036Z,101189.09
2022-07-31T04:42:44.762Z,101194.66
2022-07-31T04:45:12.594Z,101191.81
2022-07-31T04:47:40.336Z,101192.81
2022-07-31T04:50:10.600Z,101198.19
2022-07-31T04:52:38.338Z,101199.00
2022-07-31T04:55:06.829Z,101206.28
2022-07-31T04:57:34.609Z,101211.78
2022-07-31T05:00:02.451Z,101206.53
2022-07-31T05:02:32.507Z,101209.75
2022-07-31T05:05:00.294Z,101208.75
2022-07-31T05:07:30.938Z,101209.56
2022-07-31T05:09:59.000Z,101215.03
2022-07-31T05:12:27.097Z,101217.56
2022-07-31T05:14:54.823Z,101217.06
2022-07-31T05:17:22.657Z,101217.06
2022-07-31T05:19:50.349Z,101217.34
2022-07-31T05:22:18.855Z,101220.94
2022-07-31T05:24:48.101Z,101208.47
2022-07-31T05:27:15.854Z,101210.06
2022-07-31T05:29:43.775Z,101211.16
2022-07-31T05:32:12.053Z,101207.03
2022-07-31T05:34:39.997Z,101209.78
2022-07-31T05:37:07.784Z,101211.59
2022-07-31T05:39:35.521Z,101208.44
2022-07-31T05:42:07.841Z,101207.22
2022-07-31T05:44:35.671Z,101202.66
2022-07-31T05:47:05.446Z,101209.97
2022-07-31T05:49:33.247Z,101208.16
2022-07-31T05:52:02.680Z,101208.75
2022-07-31T05:54:34.732Z,101199.66
2022-07-31T05:57:04.118Z,101201.19
2022-07-31T05:59:35.513Z,101196.47
2022-07-31T06:02:05.207Z,101195.31
2022-07-31T06:04:33.184Z,101190.97
2022-07-31T06:07:00.917Z,101187.97
2022-07-31T06:09:28.889Z,101190.91
2022-07-31T06:11:56.878Z,101192.97
2022-07-31T06:14:24.668Z,101196.31
2022-07-31T06:16:53.725Z,101198.50
2022-07-31T06:19:24.627Z,101193.91
2022-07-31T06:21:54.003Z,101194.94
2022-07-31T06:24:21.917Z,101197.59
2022-07-31T06:26:49.779Z,101201.59
2022-07-31T06:29:17.627Z,101191.91
2022-07-31T06:31:45.315Z,101193.84
2022-07-31T06:34:17.113Z,101194.34
2022-07-31T06:36:47.546Z,101193.03
2022-07-31T06:39:15.252Z,101193.19
2022-07-31T06:41:47.471Z,101194.84
2022-07-31T06:44:15.523Z,101198.66
2022-07-31T06:46:49.019Z,101196.44
2022-07-31T06:49:18.796Z,101198.06
2022-07-31T06:51:46.568Z,101202.06
2022-07-31T06:54:14.323Z,101190.50
2022-07-31T06:56:42.068Z,101192.59
2022-07-31T06:59:09.992Z,101185.13
2022-07-31T07:01:37.797Z,101191.72
2022-07-31T07:04:05.981Z,101192.41
2022-07-31T07:06:35.044Z,101180.16
2022-07-31T07:09:04.136Z,101184.19
2022-07-31T07:11:31.817Z,101188.66
2022-07-31T07:13:59.527Z,101185.91
2022-07-31T07:16:27.262Z,101187.03
2022-07-31T07:18:55.958Z,101175.59
2022-07-31T07:21:23.929Z,101188.47
2022-07-31T07:23:52.980Z,101177.72
2022-07-31T07:26:20.784Z,101184.63
2022-07-31T07:28:48.493Z,101184.06
2022-07-31T07:31:16.294Z,101191.59
2022-07-31T07:33:43.997Z,101178.63
2022-07-31T07:36:23.677Z,101178.72
2022-07-31T07:38:55.627Z,101170.63
2022-07-31T07:41:24.302Z,101176.31
2022-07-31T07:43:52.718Z,101170.00
2022-07-31T07:46:21.547Z,101170.00
2022-07-31T07:48:50.810Z,101169.66
2022-07-31T07:51:18.777Z,101167.94
2022-07-31T07:53:46.535Z,101155.38
2022-07-31T07:56:15.825Z,101160.97
2022-07-31T07:58:43.640Z,101158.13
2022-07-31T08:01:11.494Z,101156.47
2022-07-31T08:03:48.688Z,101169.69
2022-07-31T08:06:19.984Z,101166.66
2022-07-31T08:08:47.846Z,101171.03
2022-07-31T08:11:18.009Z,101162.81
2022-07-31T08:13:51.235Z,101165.53
2022-07-31T08:16:20.118Z,101159.72
2022-07-31T08:18:47.931Z,101160.63
2022-07-31T08:21:16.029Z,101160.41
2022-07-31T08:23:43.837Z,101161.88
2022-07-31T08:26:13.794Z,101162.41
2022-07-31T08:28:50.295Z,101162.28
2022-07-31T08:31:19.746Z,101172.19
2022-07-31T08:33:47.537Z,101164.59
2022-07-31T08:36:15.355Z,101170.47
2022-07-31T08:38:43.086Z,101170.69
2022-07-31T08:41:10.785Z,101165.69
2022-07-31T08:44:02.436Z,101159.72
2022-07-31T08:46:27.861Z,101156.72
2022-07-31T08:48:58.066Z,101152.09
2022-07-31T08:51:26.519Z,101155.28
2022-07-31T08:53:54.378Z,101154.09
2022-07-31T08:56:22.459Z,101150.41
2022-07-31T08:58:50.270Z,101152.31
2022-07-31T09:01:18.456Z,101149.94
2022-07-31T09:03:47.519Z,101155.06
2022-07-31T09:06:15.338Z,101138.59
2022-07-31T09:08:43.186Z,101149.31
2022-07-31T09:11:13.283Z,101138.78
2022-07-31T09:13:41.643Z,101142.09
2022-07-31T09:16:09.351Z,101139.50
2022-07-31T09:18:37.140Z,101143.63
2022-07-31T09:21:07.912Z,101133.06
2022-07-31T09:23:45.193Z,101136.50
2022-07-31T09:26:13.015Z,101135.06
2022-07-31T09:28:43.152Z,101120.69
2022-07-31T09:31:12.067Z,101124.91
2022-07-31T09:33:45.349Z,101117.47
2022-07-31T09:36:15.785Z,101106.63
2022-07-31T09:38:44.416Z,101111.97
2022-07-31T09:41:55.961Z,101115.03
2022-07-31T09:44:09.436Z,101115.84
2022-07-31T09:46:41.439Z,101112.47
2022-07-31T09:49:09.201Z,101110.53
2022-07-31T09:51:42.503Z,101111.03
2022-07-31T09:54:21.310Z,101108.78
2022-07-31T09:56:50.066Z,101099.88
2022-07-31T09:59:17.858Z,101097.25
2022-07-31T10:01:48.657Z,101109.72
2022-07-31T10:04:18.667Z,101105.31
2022-07-31T10:06:49.583Z,101098.22
2022-07-31T10:09:19.434Z,101096.97
2022-07-31T10:11:47.621Z,101082.78
2022-07-31T10:14:20.420Z,101087.31
2022-07-31T10:16:49.745Z,101086.31
2022-07-31T10:19:18.309Z,101071.03
2022-07-31T10:21:54.507Z,101073.47
2022-07-31T10:24:27.936Z,101063.72
2022-07-31T10:27:00.884Z,101059.34
2022-07-31T10:29:32.793Z,101054.66
2022-07-31T10:32:03.085Z,101052.53
2022-07-31T10:34:31.426Z,101046.84
2022-07-31T10:37:11.112Z,101053.34
2022-07-31T10:39:46.990Z,101050.66
2022-07-31T10:42:24.109Z,101047.44
2022-07-31T10:44:54.923Z,101046.38
2022-07-31T10:47:22.712Z,101035.53
2022-07-31T10:49:50.796Z,101043.66
2022-07-31T10:52:29.896Z,101035.47
2022-07-31T10:54:58.220Z,101031.13
2022-07-31T10:57:27.134Z,101029.97
2022-07-31T10:59:54.928Z,101023.53
2022-07-31T11:02:30.098Z,101018.59
2022-07-31T11:05:11.716Z,101024.56
2022-07-31T11:07:41.591Z,101015.97
2022-07-31T11:10:14.245Z,101013.41
2022-07-31T11:12:42.117Z,101018.53
2022-07-31T11:15:21.337Z,101014.72
2022-07-31T11:18:23.781Z,101006.47
2022-07-31T11:20:36.987Z,101004.34
2022-07-31T11:23:08.095Z,101000.41
2022-07-31T11:25:37.610Z,100999.09
2022-07-31T11:28:13.521Z,100996.13
2022-07-31T11:30:52.290Z,100992.22
2022-07-31T11:33:31.677Z,100999.41
2022-07-31T11:36:11.612Z,100989.66
2022-07-31T11:38:42.526Z,100985.06
2022-07-31T11:41:14.298Z,100979.78
2022-07-31T11:43:45.138Z,100983.31
2022-07-31T11:46:13.348Z,100977.28
2022-07-31T11:48:45.328Z,100979.81
2022-07-31T11:51:17.995Z,100968.22
2022-07-31T11:53:56.697Z,100973.25
2022-07-31T11:56:27.241Z,100974.44
2022-07-31T11:58:56.633Z,100972.72
2022-07-31T12:01:27.099Z,100962.34
2022-07-31T12:03:55.309Z,100975.22
2022-07-31T12:06:23.239Z,100960.00
2022-07-31T12:08:52.435Z,100952.88
2022-07-31T12:11:21.086Z,100954.44
2022-07-31T12:13:49.789Z,100948.00
2022-07-31T12:16:18.552Z,100937.56
2022-07-31T12:18:48.181Z,100930.53
2022-07-31T12:21:16.559Z,100934.22
2022-07-31T12:23:46.285Z,100929.19
2022-07-31T12:26:23.608Z,100922.19
2022-07-31T12:28:58.483Z,100928.25
2022-07-31T12:31:26.455Z,100913.28
2022-07-31T12:33:54.370Z,100918.06
2022-07-31T12:36:22.528Z,100907.38
2022-07-31T12:39:00.181Z,100920.34
2022-07-31T12:41:29.525Z,100914.72
2022-07-31T12:43:57.381Z,100920.63
2022-07-31T12:46:37.231Z,100915.53
2022-07-31T12:49:05.477Z,100915.63
2022-07-31T12:51:45.371Z,100914.28
2022-07-31T12:54:15.369Z,100907.50
2022-07-31T12:56:44.872Z,100908.63
2022-07-31T12:59:13.108Z,100902.06
2022-07-31T13:01:40.980Z,100896.69
2022-07-31T13:04:18.652Z,100893.25
2022-07-31T13:06:51.339Z,100891.97
2022-07-31T13:09:20.006Z,100887.13
2022-07-31T13:11:52.138Z,100880.59
2022-07-31T13:14:23.361Z,100889.44
2022-07-31T13:16:52.477Z,100884.81
2022-07-31T13:19:20.616Z,100878.31
2022-07-31T13:21:50.173Z,100883.34
2022-07-31T13:24:19.159Z,100886.44
2022-07-31T13:26:48.694Z,100876.31
2022-07-31T13:29:16.596Z,100882.19
2022-07-31T13:31:44.543Z,100879.91
2022-07-31T13:34:12.344Z,100869.44
2022-07-31T13:36:40.252Z,100873.75
2022-07-31T13:39:08.086Z,100873.75
2022-07-31T13:41:36.647Z,100862.75
2022-07-31T13:44:09.349Z,100862.06
2022-07-31T13:46:37.383Z,100865.31
2022-07-31T13:49:08.268Z,100858.28
2022-07-31T13:51:36.685Z,100858.66
2022-07-31T13:54:04.641Z,100852.44
2022-07-31T13:56:37.524Z,100851.28
2022-07-31T13:59:12.362Z,100851.38
2022-07-31T14:02:02.876Z,100854.47
2022-07-31T14:04:28.610Z,100845.75
2022-07-31T14:07:00.740Z,100847.34
2022-07-31T14:09:29.682Z,100842.31
2022-07-31T14:11:57.445Z,100836.00
2022-07-31T14:14:26.629Z,100838.06
2022-07-31T14:16:55.337Z,100832.00
2022-07-31T14:19:23.033Z,100833.72
2022-07-31T14:21:56.767Z,100833.22
2022-07-31T14:24:25.673Z,100833.47
2022-07-31T14:26:53.700Z,100826.31
2022-07-31T14:29:21.533Z,100835.03
2022-07-31T14:31:51.345Z,100826.41
2022-07-31T14:34:19.105Z,100833.91
2022-07-31T14:36:46.824Z,100816.44
2022-07-31T14:39:14.731Z,100818.22
2022-07-31T14:41:42.460Z,100822.06
2022-07-31T14:44:10.204Z,100814.00
2022-07-31T14:46:37.950Z,100817.50
2022-07-31T14:49:08.504Z,100817.72
2022-07-31T14:51:36.304Z,100830.59
2022-07-31T14:54:04.048Z,100834.78
2022-07-31T14:56:58.879Z,100831.28
2022-07-31T14:59:19.921Z,100842.44
2022-07-31T15:01:47.768Z,100844.78
2022-07-31T15:04:16.928Z,100851.16
2022-07-31T15:06:55.971Z,100854.63
2022-07-31T15:09:31.114Z,100861.59
2022-07-31T15:12:01.212Z,100851.91
2022-07-31T15:14:29.485Z,100847.81
2022-07-31T15:16:57.236Z,100852.59
2022-07-31T15:19:26.293Z,100849.97
2022-07-31T15:22:09.985Z,100852.72
2022-07-31T15:24:48.343Z,100852.44
2022-07-31T15:27:17.612Z,100842.00
2022-07-31T15:30:04.506Z,100845.25
2022-07-31T15:32:33.200Z,100855.13
2022-07-31T15:35:03.034Z,100847.97
2022-07-31T15:37:31.003Z,100851.16
2022-07-31T15:40:02.366Z,100844.59
2022-07-31T15:42:31.294Z,100854.69
2022-07-31T15:44:59.076Z,100855.13
2022-07-31T15:47:26.825Z,100854.84
2022-07-31T15:49:54.596Z,100853.22
2022-07-31T15:52:23.721Z,100850.81
2022-07-31T15:54:52.597Z,100847.34
2022-07-31T15:57:20.820Z,100854.09
2022-07-31T15:59:49.433Z,100850.94
2022-07-31T16:02:17.773Z,100848.19
2022-07-31T16:04:53.063Z,100844.09
2022-07-31T16:08:32.666Z,100842.66
2022-07-31T16:10:16.149Z,100840.47
2022-07-31T16:12:45.723Z,100835.66
2022-07-31T16:15:13.749Z,100828.69
2022-07-31T16:17:41.519Z,100823.28
2022-07-31T16:20:11.761Z,100818.41
2022-07-31T16:22:42.305Z,100819.41
2022-07-31T16:25:11.681Z,100821.53
2022-07-31T16:27:40.317Z,100809.00
2022-07-31T16:30:08.809Z,100819.81
2022-07-31T16:32:36.737Z,100825.50
2022-07-31T16:35:06.102Z,100819.16
2022-07-31T16:37:51.587Z,100822.34
2022-07-31T16:40:29.730Z,100829.63
2022-07-31T16:43:50.124Z,100830.38
2022-07-31T16:45:51.231Z,100835.16
2022-07-31T16:48:19.326Z,100837.63
2022-07-31T16:50:54.132Z,100837.16
2022-07-31T16:54:14.298Z,100844.97
2022-07-31T16:56:11.910Z,100840.75
2022-07-31T16:58:39.624Z,100848.22
2022-07-31T17:01:53.941Z,100853.44
2022-07-31T17:04:00.713Z,100859.34
2022-07-31T17:06:36.368Z,100858.72
2022-07-31T17:09:16.451Z,100863.28
2022-07-31T17:11:48.909Z,100858.88
2022-07-31T17:14:18.145Z,100853.16
2022-07-31T17:16:48.428Z,100844.03
2022-07-31T17:19:41.046Z,100837.06
2022-07-31T17:22:05.492Z,100838.88
2022-07-31T17:24:36.471Z,100836.00
2022-07-31T17:27:06.695Z,100849.59
2022-07-31T17:29:34.887Z,100841.22
2022-07-31T17:32:05.919Z,100832.78
2022-07-31T17:34:35.203Z,100843.28
2022-07-31T17:37:07.419Z,100846.00
2022-07-31T17:39:35.935Z,100847.41
2022-07-31T17:42:06.552Z,100841.03
2022-07-31T17:47:07.676Z,100845.78
2022-07-31T17:47:26.396Z,100854.13
2022-07-31T17:49:54.615Z,100854.59
2022-07-31T17:52:22.320Z,100860.16
2022-07-31T17:54:51.257Z,100844.91
2022-07-31T17:57:22.675Z,100848.22
2022-07-31T17:59:51.510Z,100845.22
2022-07-31T18:02:19.290Z,100848.72
2022-07-31T18:04:47.028Z,100847.22
2022-07-31T18:07:17.750Z,100851.56
2022-07-31T18:09:46.048Z,100845.53
2022-07-31T18:12:15.835Z,100846.69
2022-07-31T18:14:46.223Z,100835.50
2022-07-31T18:17:13.944Z,100829.44
2022-07-31T18:19:42.422Z,100836.50
2022-07-31T18:22:10.270Z,100833.78
2022-07-31T18:24:38.044Z,100832.19
2022-07-31T18:27:07.758Z,100831.16
2022-07-31T18:29:35.514Z,100832.97
2022-07-31T18:32:08.233Z,100833.50
2022-07-31T18:34:36.103Z,100833.19
2022-07-31T18:37:04.917Z,100837.34
2022-07-31T18:39:32.624Z,100838.69
2022-07-31T18:42:00.361Z,100846.13
2022-07-31T18:44:30.723Z,100849.84
2022-07-31T18:46:58.430Z,100848.41
2022-07-31T18:50:58.345Z,100846.13
2022-07-31T18:52:16.068Z,100850.34
2022-07-31T18:54:43.848Z,100849.56
2022-07-31T18:57:11.891Z,100850.47
2022-07-31T18:59:39.651Z,100842.06
2022-07-31T19:02:08.646Z,100846.84
2022-07-31T19:04:41.245Z,100845.03
2022-07-31T19:07:09.003Z,100846.72
2022-07-31T19:09:36.723Z,100833.72
2022-07-31T19:12:08.210Z,100839.38
2022-07-31T19:14:36.794Z,100849.91
2022-07-31T19:17:08.281Z,100846.03
2022-07-31T19:19:54.576Z,100840.84
2022-07-31T19:22:25.555Z,100837.78
2022-07-31T19:24:53.449Z,100841.84
2022-07-31T19:27:21.342Z,100841.84
2022-07-31T19:29:49.090Z,100836.50
2022-07-31T19:32:16.823Z,100838.66
2022-07-31T19:34:48.152Z,100840.84
2022-07-31T19:37:20.079Z,100844.72
2022-07-31T19:39:49.176Z,100839.59
2022-07-31T19:42:17.009Z,100837.22
2022-07-31T19:44:44.805Z,100841.53
2022-07-31T19:47:12.544Z,100839.59
2022-07-31T19:49:43.006Z,100832.81
2022-07-31T19:52:10.821Z,100842.75
2022-07-31T19:54:38.601Z,100829.41
2022-07-31T19:57:07.659Z,100823.41
2022-07-31T19:59:35.364Z,100825.22
2022-07-31T20:02:03.414Z,100821.66
2022-07-31T20:04:31.313Z,100818.28
2022-07-31T20:06:59.017Z,100823.47
2022-07-31T20:09:26.794Z,100821.34
2022-07-31T20:11:54.460Z,100816.16
2022-07-31T20:14:23.533Z,100815.16
2022-07-31T20:16:51.270Z,100815.19
2022-07-31T20:19:19.046Z,100811.75
2022-07-31T20:21:46.763Z,100810.84
2022-07-31T20:24:14.535Z,100805.59
2022-07-31T20:26:42.212Z,100809.75
2022-07-31T20:29:09.930Z,100801.63
2022-07-31T20:31:39.697Z,100812.97
2022-07-31T20:34:07.462Z,100797.81
2022-07-31T20:36:35.221Z,100810.41
2022-07-31T20:39:02.987Z,100801.84
2022-07-31T20:41:30.868Z,100804.88
2022-07-31T20:43:58.644Z,100795.25
2022-07-31T20:46:27.580Z,100804.06
2022-07-31T20:48:57.264Z,100793.47
2022-07-31T20:51:25.016Z,100793.59
2022-07-31T20:53:53.636Z,100794.06
2022-07-31T20:56:22.513Z,100788.44
2022-07-31T20:58:51.930Z,100782.78
2022-07-31T21:01:20.866Z,100778.91
2022-07-31T21:03:48.897Z,100780.00
2022-07-31T21:06:19.202Z,100776.81
2022-07-31T21:08:46.937Z,100777.78
2022-07-31T21:11:14.660Z,100770.03
2022-07-31T21:13:43.086Z,100772.25
2022-07-31T21:16:10.859Z,100761.16
2022-07-31T21:18:43.011Z,100758.91
2022-07-31T21:21:11.457Z,100761.81
2022-07-31T21:23:40.531Z,100755.19
2022-07-31T21:26:08.661Z,100754.88
2022-07-31T21:28:36.936Z,100750.84
2022-07-31T21:31:05.314Z,100749.06
2022-07-31T21:33:33.666Z,100750.03
2022-07-31T21:36:02.964Z,100743.75
2022-07-31T21:38:31.112Z,100748.75
2022-07-31T21:41:00.735Z,100749.72
2022-07-31T21:43:30.456Z,100748.25
2022-07-31T21:46:07.326Z,100759.22
2022-07-31T21:48:38.067Z,100751.16
2022-07-31T21:51:06.403Z,100753.59
2022-07-31T21:53:35.576Z,100752.25
2022-07-31T21:56:05.037Z,100757.28
2022-07-31T21:58:32.757Z,100753.28
2022-07-31T22:01:00.549Z,100757.31
2022-07-31T22:03:28.352Z,100756.84
2022-07-31T22:06:13.758Z,100755.34
2022-07-31T22:08:41.465Z,100754.41
2022-07-31T22:11:10.682Z,100756.78
2022-07-31T22:13:38.782Z,100761.13
2022-07-31T22:16:06.823Z,100769.38
2022-07-31T22:18:35.369Z,100760.53
2022-07-31T22:21:04.858Z,100762.91
2022-07-31T22:23:33.117Z,100757.44
2022-07-31T22:26:03.573Z,100762.53
2022-07-31T22:28:32.953Z,100755.69
2022-07-31T22:31:00.976Z,100762.28
2022-07-31T22:33:29.285Z,100753.94
2022-07-31T22:36:00.537Z,100755.44
2022-07-31T22:38:30.897Z,100750.50
2022-07-31T22:40:59.097Z,100751.41
2022-07-31T22:44:10.954Z,100751.25
2022-07-31T22:46:16.638Z,100751.84
2022-07-31T22:48:46.250Z,100748.47
2022-07-31T22:51:15.175Z,100751.94
2022-07-31T22:53:43.581Z,100745.81
2022-07-31T22:56:11.330Z,100751.50
2022-07-31T22:58:39.327Z,100758.69
2022-07-31T23:01:07.056Z,100745.81
2022-07-31T23:03:36.128Z,100745.06
2022-07-31T23:06:31.666Z,100761.22
2022-07-31T23:08:54.485Z,100756.63
2022-07-31T23:11:24.329Z,100751.69
2022-07-31T23:13:52.113Z,100755.97
2022-07-31T23:16:20.940Z,100757.88
2022-07-31T23:18:50.540Z,100760.41
2022-07-31T23:21:18.495Z,100755.81
2022-07-31T23:23:49.226Z,100750.19
2022-07-31T23:26:18.692Z,100756.03
2022-07-31T23:28:46.471Z,100755.16
2022-07-31T23:31:14.255Z,100757.25
2022-07-31T23:33:42.416Z,100756.13
2022-07-31T23:36:11.529Z,100750.81
2022-07-31T23:38:39.372Z,100748.25
2022-07-31T23:41:07.448Z,100744.88
2022-07-31T23:43:34.462Z,100744.44
2022-07-31T23:46:03.037Z,100734.50
2022-07-31T23:48:31.250Z,100745.59
2022-07-31T23:50:59.221Z,100732.41
2022-07-31T23:53:28.285Z,100734.25
2022-07-31T23:55:55.992Z,100731.19
2022-07-31T23:58:23.778Z,100734.09
